LPPRLXGB

Guest
Details From LPPR - Porto
To LXGB - Gibraltar
Flight Number -
Tags generated
Created
Modified
Stats Distance 371 nm / 688 km
Max Altitude 35,000 ft / 10,668 m
Waypoints 7
Social Downloads 0
Likes 0
Share VATSIM

Download

Looking for another format? Having issues loading an existing format? Contact us
Advertisement - Login to hide

Notes

Basic altitude profile: - Ascent Rate: 2500ft/min - Ascent Speed: 250kts - Cruise Altitude: 35000ft - Cruise Speed: 420kts - Descent Rate: 1500ft/min - Descent Speed: 250kts Options: - Use NATs: yes - Use PACOTS: yes - Use low airways: yes - Use high airways: yes

Route

LPPR DIGAL UZ1 ALAGU UM744 SANTA LXGB

ID Type Via Altitude Latitude Longitude Leg Dist Tot Dist Heading (true) Name
O LPPR APT - 0 ft / 0 m 41.24793˚ -8.68122˚ - 0 nm - Porto
DIGAL FIX - 33,200 ft / 10,119 m 39.74083˚ -7.98972˚ 95 nm 95 nm 161° / 161° -
BIRBA FIX UZ1 (AWY-HI) 35,000 ft / 10,668 m 39.10556˚ -7.51194˚ 44 nm 139 nm 150° / 150° -
ALAGU FIX UZ1 (AWY-HI) 34,000 ft / 10,363 m 38.08861˚ -7.61444˚ 61 nm 201 nm 185° / 184° -
ROSAL FIX UM744 (AWY-HI) 31,100 ft / 9,479 m 38.02151˚ -7.10126˚ 24 nm 225 nm 99° / 100° -
SANTA FIX UM744 (AWY-HI) 23,500 ft / 7,163 m 37.66854˚ -6.29835˚ 43 nm 269 nm 119° / 119° -
O LXGB APT - 0 ft / 0 m 36.15121˚ -5.34966˚ 101 nm 371 nm 153° / 154° Gibraltar

Altitude Profile

Advertisement - Login to hide

Weather


0- 5 10 15 20 25 30 35+ Temperature / ° C

Clouds and Precipitation
Forecast for 2017-12-18 12:00 UTC. Updated 14 minutes ago

Ground ~20,000 ft ~40,000 ft Winds

LPPR

Details ICAO LPPR (OPO)
Name Porto
Region Portugal
Timezone Europe/Lisbon (UTC+0.0)
Stats Elevation 228 ft / 69 m (AMSL)
Location 41.247932° -8.681221°
Runways 1
Magnetic Variation 2.338° W

METAR

LPPR 180930Z 10003KT 030V160 CAVOK 07/03 Q1035

Decode

TAF

TAF LPPR 180500Z 1806/1906 08005KT CAVOK BECMG 1812/1815 35007KT BECMG 1818/1821 03005KT BECMG 1900/1903 08005KT

Decode

Departure Runways

ID Width Length Bearing (true) Bearing (mag) Surface Threshold Offset Overrun Length
17 148 ft / 45 m 11,451 ft / 3,490 m 168.88° 171.22° Asphalt 984 ft / 300 m 220 ft / 67 m
35 148 ft / 45 m 11,451 ft / 3,490 m 348.89° 351.23° Asphalt 492 ft / 150 m 370 ft / 113 m

LXGB

Details ICAO LXGB (GIB)
Name Gibraltar
Region Gibralter
Timezone Europe/Gibraltar (UTC+1.0)
Stats Elevation 15 ft / 5 m (AMSL)
Location 36.151209° -5.349664°
Runways 1
Magnetic Variation 1.121° W

METAR

LXGB 180850Z 07019G30KT 9999 BKN025 14/10 Q1030 NOSIG

Decode

TAF

Not found

Destination Runways

ID Width Length Bearing (true) Bearing (mag) Surface Threshold Offset Overrun Length
27 151 ft / 46 m 5,992 ft / 1,826 m 267.56° 268.68° Asphalt 367 ft / 112 m 89 ft / 27 m
9 151 ft / 46 m 5,992 ft / 1,826 m 87.54° 88.66° Asphalt 299 ft / 91 m 52 ft / 16 m

Popular Alternatives